createdAt,value
2023-04-07T00:01:23.648Z,7.80
2023-04-07T00:03:51.555Z,7.90
2023-04-07T00:06:19.704Z,7.80
2023-04-07T00:08:47.543Z,7.80
2023-04-07T00:11:15.148Z,7.70
2023-04-07T00:13:42.829Z,7.80
2023-04-07T00:16:10.746Z,7.80
2023-04-07T00:18:38.447Z,7.80
2023-04-07T00:21:06.373Z,7.80
2023-04-07T00:23:34.085Z,7.80
2023-04-07T00:26:02.436Z,7.70
2023-04-07T00:28:30.096Z,7.80
2023-04-07T00:30:57.926Z,7.70
2023-04-07T00:33:26.211Z,7.70
2023-04-07T00:35:54.638Z,7.70
2023-04-07T00:38:22.376Z,7.70
2023-04-07T00:40:50.850Z,7.80
2023-04-07T00:43:19.911Z,7.90
2023-04-07T00:45:47.679Z,7.90
2023-04-07T00:48:15.835Z,8.00
2023-04-07T00:50:46.130Z,8.00
2023-04-07T00:53:17.401Z,7.90
2023-04-07T00:55:48.716Z,7.80
2023-04-07T00:58:16.677Z,7.80
2023-04-07T01:01:51.341Z,7.80
2023-04-07T01:04:54.864Z,8.00
2023-04-07T01:07:44.510Z,7.90
2023-04-07T01:11:04.526Z,7.80
2023-04-07T01:13:51.163Z,7.80
2023-04-07T01:16:55.069Z,7.80
2023-04-07T01:19:53.884Z,7.80
2023-04-07T01:22:35.212Z,7.80
2023-04-07T01:25:58.294Z,7.80
2023-04-07T01:29:07.896Z,7.80
2023-04-07T01:31:42.247Z,7.80
2023-04-07T01:34:14.422Z,7.80
2023-04-07T01:36:45.956Z,7.80
2023-04-07T01:39:15.811Z,7.80
2023-04-07T01:41:46.536Z,7.70
2023-04-07T01:44:16.257Z,7.80
2023-04-07T01:46:44.422Z,7.80
2023-04-07T01:49:15.851Z,7.80
2023-04-07T01:51:50.312Z,7.80
2023-04-07T01:54:20.981Z,7.80
2023-04-07T01:56:48.798Z,7.80
2023-04-07T01:59:17.200Z,7.80
2023-04-07T02:01:46.341Z,7.80
2023-04-07T02:04:46.203Z,7.80
2023-04-07T02:07:46.606Z,7.80
2023-04-07T02:10:23.065Z,7.80
2023-04-07T02:12:57.736Z,7.80
2023-04-07T02:15:28.238Z,7.90
2023-04-07T02:18:01.422Z,7.90
2023-04-07T02:20:31.306Z,7.90
2023-04-07T02:22:59.646Z,7.90
2023-04-07T02:25:32.561Z,7.90
2023-04-07T02:28:01.704Z,7.90
2023-04-07T02:30:30.029Z,7.90
2023-04-07T02:32:58.241Z,8.00
2023-04-07T02:35:26.376Z,8.00
2023-04-07T02:37:54.673Z,8.00
2023-04-07T02:40:22.476Z,8.10
2023-04-07T02:42:50.489Z,8.10
2023-04-07T02:45:18.410Z,8.10
2023-04-07T02:47:46.343Z,8.10
2023-04-07T02:50:14.332Z,8.10
2023-04-07T02:52:42.180Z,8.10
2023-04-07T02:55:14.070Z,8.10
2023-04-07T02:57:42.129Z,8.10
2023-04-07T03:00:18.780Z,8.10
2023-04-07T03:03:13.024Z,8.10
2023-04-07T03:05:44.613Z,8.10
2023-04-07T03:08:13.202Z,8.10
2023-04-07T03:10:41.638Z,8.10
2023-04-07T03:13:10.379Z,8.10
2023-04-07T03:15:38.801Z,8.10
2023-04-07T03:18:07.905Z,8.10
2023-04-07T03:20:36.092Z,8.10
2023-04-07T03:23:09.915Z,8.10
2023-04-07T03:25:37.917Z,8.10
2023-04-07T03:28:06.762Z,8.10
2023-04-07T03:30:38.525Z,8.10
2023-04-07T03:33:07.315Z,8.10
2023-04-07T03:35:35.109Z,8.10
2023-04-07T03:38:03.044Z,8.20
2023-04-07T03:40:31.043Z,8.10
2023-04-07T03:42:59.633Z,8.20
2023-04-07T03:45:27.396Z,8.10
2023-04-07T03:47:55.557Z,8.10
2023-04-07T03:50:23.596Z,8.10
2023-04-07T03:53:00.550Z,8.10
2023-04-07T03:55:33.399Z,8.10
2023-04-07T03:58:09.824Z,8.10
2023-04-07T04:00:39.406Z,8.10
2023-04-07T04:03:13.159Z,8.10
2023-04-07T04:05:53.858Z,8.10
2023-04-07T04:08:28.245Z,8.10
2023-04-07T04:10:56.329Z,8.10
2023-04-07T04:13:28.102Z,8.10
2023-04-07T04:15:59.284Z,8.10
2023-04-07T04:18:27.708Z,8.10
2023-04-07T04:20:56.084Z,8.10
2023-04-07T04:23:24.422Z,8.10
2023-04-07T04:25:55.013Z,8.10
2023-04-07T04:28:23.160Z,8.10
2023-04-07T04:30:51.656Z,8.10
2023-04-07T04:33:20.583Z,8.00
2023-04-07T04:35:56.594Z,8.00
2023-04-07T04:38:26.132Z,8.10
2023-04-07T04:40:59.885Z,8.10
2023-04-07T04:43:31.071Z,8.10
2023-04-07T04:46:00.215Z,8.00
2023-04-07T04:48:31.728Z,8.10
2023-04-07T04:50:59.661Z,8.00
2023-04-07T04:53:27.790Z,8.00
2023-04-07T04:55:59.964Z,8.00
2023-04-07T04:58:46.321Z,8.00
2023-04-07T05:01:22.363Z,8.00
2023-04-07T05:04:01.189Z,8.00
2023-04-07T05:06:31.512Z,7.90
2023-04-07T05:09:04.987Z,7.90
2023-04-07T05:11:42.517Z,7.90
2023-04-07T05:14:10.655Z,7.90
2023-04-07T05:16:43.269Z,7.90
2023-04-07T05:19:16.958Z,7.90
2023-04-07T05:21:45.658Z,7.80
2023-04-07T05:24:14.728Z,7.80
2023-04-07T05:26:42.596Z,7.80
2023-04-07T05:29:10.569Z,7.80
2023-04-07T05:31:40.519Z,7.80
2023-04-07T05:34:11.979Z,7.80
2023-04-07T05:36:46.564Z,7.80
2023-04-07T05:39:14.300Z,7.80
2023-04-07T05:41:42.388Z,7.80
2023-04-07T05:44:10.814Z,7.80
2023-04-07T05:46:41.626Z,7.80
2023-04-07T05:49:19.473Z,7.80
2023-04-07T05:51:52.211Z,7.90
2023-04-07T05:54:23.877Z,7.90
2023-04-07T05:56:53.112Z,7.80
2023-04-07T05:59:22.558Z,7.80
2023-04-07T06:01:52.098Z,7.80
2023-04-07T06:04:21.144Z,7.80
2023-04-07T06:06:52.732Z,7.90
2023-04-07T06:09:20.533Z,7.90
2023-04-07T06:11:49.574Z,7.90
2023-04-07T06:14:18.952Z,7.90
2023-04-07T06:16:46.953Z,7.90
2023-04-07T06:19:14.921Z,7.90
2023-04-07T06:21:42.670Z,7.90
2023-04-07T06:24:10.689Z,7.90
2023-04-07T06:26:41.749Z,7.90
2023-04-07T06:29:09.810Z,7.90
2023-04-07T06:31:38.802Z,7.90
2023-04-07T06:34:06.926Z,7.90
2023-04-07T06:36:35.830Z,7.90
2023-04-07T06:39:04.131Z,7.90
2023-04-07T06:41:32.727Z,7.90
2023-04-07T06:44:01.574Z,7.90
2023-04-07T06:46:29.412Z,7.90
2023-04-07T06:48:57.337Z,7.90
2023-04-07T06:51:25.024Z,7.90
2023-04-07T06:53:53.173Z,7.80
2023-04-07T06:56:24.166Z,7.90
2023-04-07T06:58:51.976Z,7.90
2023-04-07T07:01:19.805Z,7.90
2023-04-07T07:03:47.945Z,7.90
2023-04-07T07:06:15.958Z,7.80
2023-04-07T07:08:43.966Z,7.90
2023-04-07T07:11:12.064Z,7.90
2023-04-07T07:13:39.931Z,7.90
2023-04-07T07:16:08.113Z,8.00
2023-04-07T07:18:37.109Z,8.10
2023-04-07T07:21:06.200Z,8.10
2023-04-07T07:23:34.648Z,8.10
2023-04-07T07:26:03.289Z,8.10
2023-04-07T07:28:31.257Z,8.10
2023-04-07T07:30:59.091Z,8.10
2023-04-07T07:33:27.486Z,8.30
2023-04-07T07:35:56.050Z,8.30
2023-04-07T07:38:24.016Z,8.30
2023-04-07T07:40:51.863Z,8.30
2023-04-07T07:43:19.566Z,8.30
2023-04-07T07:45:47.287Z,8.30
2023-04-07T07:48:14.914Z,8.40
2023-04-07T07:50:44.583Z,8.40
2023-04-07T07:53:12.435Z,8.40
2023-04-07T07:55:40.434Z,8.30
2023-04-07T07:58:08.483Z,8.40
2023-04-07T08:00:36.294Z,8.40
2023-04-07T08:03:04.270Z,8.40
2023-04-07T08:05:32.476Z,8.50
2023-04-07T08:08:00.389Z,8.50
2023-04-07T08:10:28.500Z,8.50
2023-04-07T08:12:56.629Z,8.50
2023-04-07T08:15:24.919Z,8.60
2023-04-07T08:17:56.197Z,8.50
2023-04-07T08:20:24.918Z,8.50
2023-04-07T08:22:52.968Z,8.60
2023-04-07T08:25:21.251Z,8.70
2023-04-07T08:27:49.383Z,8.70
2023-04-07T08:30:21.171Z,8.60
2023-04-07T08:32:50.153Z,8.60
2023-04-07T08:35:17.926Z,8.60
2023-04-07T08:37:45.669Z,8.60
2023-04-07T08:40:14.154Z,8.60
2023-04-07T08:42:48.480Z,8.60
2023-04-07T08:45:19.439Z,8.60
2023-04-07T08:47:53.852Z,8.60
2023-04-07T08:50:25.636Z,8.50
2023-04-07T08:53:06.383Z,8.60
2023-04-07T08:55:37.230Z,8.60
2023-04-07T08:58:06.340Z,8.60
2023-04-07T09:00:34.046Z,8.60
2023-04-07T09:03:03.767Z,8.60
2023-04-07T09:05:32.845Z,8.60
2023-04-07T09:08:00.762Z,8.60
2023-04-07T09:10:29.045Z,8.60
2023-04-07T09:13:00.082Z,8.60
2023-04-07T09:15:32.764Z,8.60
2023-04-07T09:18:00.751Z,8.60
2023-04-07T09:20:28.442Z,8.60
2023-04-07T09:22:56.687Z,8.60
2023-04-07T09:25:30.198Z,8.60
2023-04-07T09:28:04.288Z,8.60
2023-04-07T09:30:34.427Z,8.70
2023-04-07T09:33:02.796Z,8.70
2023-04-07T09:35:30.941Z,8.80
2023-04-07T09:38:10.033Z,8.90
2023-04-07T09:40:38.696Z,8.90
2023-04-07T09:43:07.798Z,8.80
2023-04-07T09:45:37.162Z,8.80
2023-04-07T09:48:20.691Z,8.80
2023-04-07T09:50:52.163Z,8.90
2023-04-07T09:53:23.294Z,8.90
2023-04-07T09:55:51.818Z,9.00
2023-04-07T09:58:20.615Z,9.10
2023-04-07T10:00:49.620Z,9.30
2023-04-07T10:03:18.251Z,9.50
2023-04-07T10:05:48.449Z,9.60
2023-04-07T10:08:16.389Z,9.60
2023-04-07T10:10:45.537Z,9.70
2023-04-07T10:13:14.125Z,9.60
2023-04-07T10:15:43.019Z,9.60
2023-04-07T10:18:11.935Z,9.40
2023-04-07T10:20:44.020Z,9.40
2023-04-07T10:23:31.497Z,9.30
2023-04-07T10:26:02.867Z,9.30
2023-04-07T10:28:34.155Z,9.30
2023-04-07T10:31:03.071Z,9.20
2023-04-07T10:33:55.142Z,9.20
2023-04-07T10:36:23.581Z,9.20
2023-04-07T10:39:17.647Z,9.30
2023-04-07T10:41:45.583Z,9.40
2023-04-07T10:44:39.159Z,9.50
2023-04-07T10:47:08.025Z,9.40
2023-04-07T10:49:36.898Z,9.50
2023-04-07T10:52:14.904Z,9.40
2023-04-07T10:54:43.008Z,9.30
2023-04-07T10:57:15.957Z,9.20
2023-04-07T11:00:12.648Z,9.20
2023-04-07T11:02:41.930Z,9.20
2023-04-07T11:05:23.954Z,9.20
2023-04-07T11:07:59.478Z,9.20
2023-04-07T11:10:27.358Z,9.30
2023-04-07T11:13:10.745Z,9.30
2023-04-07T11:15:40.790Z,9.30
2023-04-07T11:18:23.845Z,9.20
2023-04-07T11:21:01.185Z,9.20
2023-04-07T11:23:29.774Z,9.10
2023-04-07T11:26:03.890Z,9.10
2023-04-07T11:28:32.910Z,9.10
2023-04-07T11:31:01.304Z,9.20
2023-04-07T11:33:32.429Z,9.20
2023-04-07T11:36:03.367Z,9.20
2023-04-07T11:38:39.406Z,9.20
2023-04-07T11:41:16.710Z,9.20
2023-04-07T11:43:44.996Z,9.20
2023-04-07T11:46:19.113Z,9.20
2023-04-07T11:48:47.607Z,9.30
2023-04-07T11:51:25.606Z,9.30
2023-04-07T11:53:57.808Z,9.30
2023-04-07T11:56:25.992Z,9.40
2023-04-07T11:58:56.285Z,9.40
2023-04-07T12:01:40.546Z,9.30
2023-04-07T12:04:16.220Z,9.30
2023-04-07T12:06:48.866Z,9.40
2023-04-07T12:09:38.377Z,9.40
2023-04-07T12:12:08.801Z,9.30
2023-04-07T12:14:37.914Z,9.40
2023-04-07T12:17:05.683Z,9.50
2023-04-07T12:19:35.863Z,9.30
2023-04-07T12:22:04.606Z,9.10
2023-04-07T12:24:32.748Z,9.20
2023-04-07T12:27:00.689Z,9.20
2023-04-07T12:29:28.676Z,9.20
2023-04-07T12:31:57.904Z,9.30
2023-04-07T12:34:27.379Z,9.30
2023-04-07T12:36:55.106Z,9.30
2023-04-07T12:39:23.194Z,9.50
2023-04-07T12:41:53.400Z,9.50
2023-04-07T12:44:21.309Z,9.50
2023-04-07T12:46:48.989Z,9.60
2023-04-07T12:49:16.797Z,9.70
2023-04-07T12:51:44.537Z,9.80
2023-04-07T12:54:12.471Z,9.60
2023-04-07T12:56:42.074Z,9.40
2023-04-07T12:59:10.131Z,9.50
2023-04-07T13:01:38.084Z,9.40
2023-04-07T13:04:06.340Z,9.30
2023-04-07T13:06:34.828Z,9.50
2023-04-07T13:09:02.686Z,9.40
2023-04-07T13:11:30.672Z,9.50
2023-04-07T13:14:00.539Z,9.40
2023-04-07T13:16:29.640Z,9.30
2023-04-07T13:18:57.518Z,9.50
2023-04-07T13:23:56.495Z,9.60
2023-04-07T13:26:24.826Z,9.50
2023-04-07T13:28:53.232Z,9.30
2023-04-07T13:31:22.111Z,9.20
2023-04-07T13:33:50.612Z,9.10
2023-04-07T13:36:20.548Z,9.10
2023-04-07T13:38:50.105Z,9.20
2023-04-07T13:41:17.894Z,9.30
2023-04-07T13:43:45.732Z,9.40
2023-04-07T13:46:28.020Z,9.50
2023-04-07T13:48:57.381Z,9.60
2023-04-07T13:51:25.455Z,9.70
2023-04-07T13:53:53.408Z,9.90
2023-04-07T13:56:22.357Z,9.90
2023-04-07T13:58:50.642Z,9.80
2023-04-07T14:01:18.915Z,9.80
2023-04-07T14:03:48.386Z,9.90
2023-04-07T14:06:16.274Z,9.90
2023-04-07T14:08:44.199Z,9.80
2023-04-07T14:11:12.004Z,9.70
2023-04-07T14:13:39.778Z,9.60
2023-04-07T14:16:08.294Z,9.70
2023-04-07T14:18:37.306Z,9.90
2023-04-07T14:21:06.873Z,10.10
2023-04-07T14:23:37.738Z,10.00
2023-04-07T14:26:05.889Z,10.00
2023-04-07T14:28:33.789Z,9.90
2023-04-07T14:31:02.276Z,9.90
2023-04-07T14:33:30.751Z,9.90
2023-04-07T14:35:58.821Z,9.90
2023-04-07T14:38:27.487Z,9.90
2023-04-07T14:40:55.610Z,9.80
2023-04-07T14:43:23.475Z,9.90
2023-04-07T14:45:51.180Z,9.80
2023-04-07T14:48:22.804Z,9.80
2023-04-07T14:51:02.214Z,9.70
2023-04-07T14:53:36.881Z,9.70
2023-04-07T14:56:08.571Z,9.70
2023-04-07T14:58:39.074Z,9.70
2023-04-07T15:01:08.358Z,9.70
2023-04-07T15:03:46.531Z,9.70
2023-04-07T15:06:15.612Z,9.80
2023-04-07T15:08:43.551Z,9.70
2023-04-07T15:11:11.322Z,9.80
2023-04-07T15:13:39.225Z,9.70
2023-04-07T15:16:15.921Z,9.70
2023-04-07T15:18:47.605Z,9.60
2023-04-07T15:21:15.991Z,9.70
2023-04-07T15:23:43.794Z,9.90
2023-04-07T15:26:12.145Z,10.20
2023-04-07T15:28:40.381Z,10.20
2023-04-07T15:31:10.082Z,10.00
2023-04-07T15:33:44.270Z,9.90
2023-04-07T15:36:12.096Z,9.80
2023-04-07T15:38:40.701Z,9.80
2023-04-07T15:41:08.690Z,9.90
2023-04-07T15:43:37.818Z,9.70
2023-04-07T15:46:05.767Z,9.60
2023-04-07T15:48:33.712Z,9.40
2023-04-07T15:51:01.614Z,9.40
2023-04-07T15:53:30.375Z,9.40
2023-04-07T15:55:58.686Z,9.50
2023-04-07T15:58:26.677Z,9.50
2023-04-07T16:00:54.763Z,9.60
2023-04-07T16:03:22.901Z,9.50
2023-04-07T16:05:51.435Z,9.70
2023-04-07T16:08:19.620Z,9.60
2023-04-07T16:10:47.303Z,9.50
2023-04-07T16:13:15.196Z,9.50
2023-04-07T16:15:43.077Z,9.50
2023-04-07T16:18:12.726Z,9.50
2023-04-07T16:20:40.868Z,9.50
2023-04-07T16:23:09.341Z,9.40
2023-04-07T16:25:37.065Z,9.30
2023-04-07T16:28:05.331Z,9.20
2023-04-07T16:30:33.161Z,9.20
2023-04-07T16:33:01.687Z,9.20
2023-04-07T16:35:31.092Z,9.30
2023-04-07T16:38:04.730Z,9.30
2023-04-07T16:40:34.055Z,9.30
2023-04-07T16:43:01.980Z,9.30
2023-04-07T16:45:30.126Z,9.10
2023-04-07T16:47:57.996Z,9.10
2023-04-07T16:50:25.927Z,9.10
2023-04-07T16:52:55.052Z,9.10
2023-04-07T16:55:23.326Z,9.00
2023-04-07T16:57:51.406Z,9.00
2023-04-07T17:00:22.462Z,8.90
2023-04-07T17:02:51.354Z,9.00
2023-04-07T17:05:19.437Z,9.00
2023-04-07T17:07:48.521Z,9.00
2023-04-07T17:10:16.688Z,8.90
2023-04-07T17:12:44.846Z,8.80
2023-04-07T17:15:12.886Z,8.90
2023-04-07T17:17:41.095Z,8.80
2023-04-07T17:20:11.010Z,8.80
2023-04-07T17:22:39.039Z,8.80
2023-04-07T17:25:07.914Z,8.80
2023-04-07T17:27:36.120Z,8.80
2023-04-07T17:30:05.368Z,8.80
2023-04-07T17:32:33.668Z,8.80
2023-04-07T17:35:01.696Z,8.70
2023-04-07T17:37:29.351Z,8.80
2023-04-07T17:39:57.110Z,8.70
2023-04-07T17:42:24.973Z,8.70
2023-04-07T17:44:54.263Z,8.70
2023-04-07T17:47:22.261Z,8.70
2023-04-07T17:49:50.051Z,8.70
2023-04-07T17:52:17.834Z,8.60
2023-04-07T17:54:45.535Z,8.60
2023-04-07T17:57:14.615Z,8.60
2023-04-07T17:59:42.928Z,8.70
2023-04-07T18:02:10.695Z,8.70
2023-04-07T18:04:40.554Z,8.60
2023-04-07T18:07:08.812Z,8.60
2023-04-07T18:09:36.917Z,8.60
2023-04-07T18:12:04.991Z,8.50
2023-04-07T18:14:32.792Z,8.50
2023-04-07T18:17:00.680Z,8.50
2023-04-07T18:19:30.203Z,8.50
2023-04-07T18:21:57.886Z,8.50
2023-04-07T18:24:25.859Z,8.50
2023-04-07T18:26:53.590Z,8.50
2023-04-07T18:29:21.389Z,8.50
2023-04-07T18:31:49.184Z,8.50
2023-04-07T18:34:16.993Z,8.50
2023-04-07T18:36:44.686Z,8.50
2023-04-07T18:39:12.630Z,8.50
2023-04-07T18:41:46.557Z,8.50
2023-04-07T18:44:15.545Z,8.40
2023-04-07T18:46:43.217Z,8.50
2023-04-07T18:49:11.070Z,8.50
2023-04-07T18:51:39.251Z,8.40
2023-04-07T18:54:07.365Z,8.50
2023-04-07T18:56:35.315Z,8.50
2023-04-07T18:59:03.967Z,8.50
2023-04-07T19:01:31.750Z,8.60
2023-04-07T19:03:59.981Z,8.60
2023-04-07T19:06:32.309Z,8.50
2023-04-07T19:09:00.486Z,8.50
2023-04-07T19:11:28.250Z,8.50
2023-04-07T19:13:56.719Z,8.50
2023-04-07T19:16:25.521Z,8.50
2023-04-07T19:18:54.321Z,8.50
2023-04-07T19:21:22.494Z,8.40
2023-04-07T19:23:50.629Z,8.40
2023-04-07T19:26:18.880Z,8.40
2023-04-07T19:28:48.397Z,8.40
2023-04-07T19:31:16.373Z,8.40
2023-04-07T19:33:44.205Z,8.40
2023-04-07T19:36:12.411Z,8.40
2023-04-07T19:38:40.282Z,8.40
2023-04-07T19:41:10.037Z,8.30
2023-04-07T19:43:38.015Z,8.30
2023-04-07T19:46:06.500Z,8.30
2023-04-07T19:48:34.343Z,8.30
2023-04-07T19:51:02.187Z,8.20
2023-04-07T19:53:30.085Z,8.30
2023-04-07T19:55:57.786Z,8.20
2023-04-07T19:58:26.244Z,8.20
2023-04-07T20:00:55.218Z,8.20
2023-04-07T20:03:23.425Z,8.20
2023-04-07T20:05:52.957Z,8.20
2023-04-07T20:08:20.859Z,8.10
2023-04-07T20:10:52.826Z,8.20
2023-04-07T20:13:20.977Z,8.10
2023-04-07T20:15:49.268Z,8.10
2023-04-07T20:18:18.714Z,8.30
2023-04-07T20:20:47.243Z,8.20
2023-04-07T20:23:16.260Z,8.30
2023-04-07T20:25:44.036Z,8.30
2023-04-07T20:28:11.845Z,8.30
2023-04-07T20:30:39.621Z,8.20
2023-04-07T20:33:07.452Z,8.10
2023-04-07T20:35:35.615Z,8.10
2023-04-07T20:38:03.427Z,8.10
2023-04-07T20:40:36.726Z,8.00
2023-04-07T20:43:06.356Z,8.00
2023-04-07T20:45:34.710Z,8.00
2023-04-07T20:48:03.253Z,8.00
2023-04-07T20:50:31.237Z,7.90
2023-04-07T20:52:59.028Z,7.80
2023-04-07T20:55:27.351Z,7.80
2023-04-07T20:57:55.503Z,7.70
2023-04-07T21:00:23.650Z,7.60
2023-04-07T21:02:51.683Z,7.50
2023-04-07T21:05:20.516Z,7.40
2023-04-07T21:07:48.502Z,7.30
2023-04-07T21:10:16.384Z,7.20
2023-04-07T21:12:44.389Z,7.20
2023-04-07T21:15:12.697Z,7.00
2023-04-07T21:17:40.727Z,6.90
2023-04-07T21:20:10.042Z,6.80
2023-04-07T21:22:38.318Z,6.80
2023-04-07T21:25:09.850Z,6.70
2023-04-07T21:27:38.402Z,6.70
2023-04-07T21:30:08.396Z,6.60
2023-04-07T21:32:36.906Z,6.40
2023-04-07T21:35:05.402Z,6.40
2023-04-07T21:37:33.283Z,6.30
2023-04-07T21:40:01.468Z,6.30
2023-04-07T21:42:29.377Z,6.30
2023-04-07T21:44:57.231Z,6.30
2023-04-07T21:47:25.187Z,6.40
2023-04-07T21:49:53.664Z,6.30
2023-04-07T21:52:21.355Z,6.40
2023-04-07T21:54:49.152Z,6.40
2023-04-07T21:57:17.074Z,6.30
2023-04-07T21:59:44.814Z,6.30
2023-04-07T22:02:15.907Z,6.20
2023-04-07T22:04:44.024Z,6.20
2023-04-07T22:07:12.117Z,6.20
2023-04-07T22:09:39.915Z,6.30
2023-04-07T22:12:07.797Z,6.40
2023-04-07T22:14:35.677Z,6.50
2023-04-07T22:17:03.529Z,6.40
2023-04-07T22:19:31.480Z,6.40
2023-04-07T22:21:59.297Z,6.40
2023-04-07T22:24:27.006Z,6.30
2023-04-07T22:26:55.576Z,6.40
2023-04-07T22:29:23.457Z,6.40
2023-04-07T22:31:51.542Z,6.40
2023-04-07T22:34:19.475Z,6.30
2023-04-07T22:36:47.189Z,6.20
2023-04-07T22:39:14.977Z,6.30
2023-04-07T22:41:42.716Z,6.30
2023-04-07T22:44:10.704Z,6.20
2023-04-07T22:46:38.399Z,6.10
2023-04-07T22:49:06.547Z,6.00
2023-04-07T22:51:34.368Z,5.90
2023-04-07T22:54:02.237Z,5.70
2023-04-07T22:56:30.093Z,5.50
2023-04-07T22:59:05.991Z,5.50
2023-04-07T23:01:34.299Z,5.50
2023-04-07T23:04:02.215Z,5.50
2023-04-07T23:06:30.263Z,5.40
2023-04-07T23:08:58.438Z,5.40
2023-04-07T23:11:26.448Z,5.30
2023-04-07T23:13:54.367Z,5.20
2023-04-07T23:16:23.350Z,5.20
2023-04-07T23:18:51.259Z,5.10
2023-04-07T23:21:19.130Z,5.10
2023-04-07T23:23:46.925Z,5.00
2023-04-07T23:26:14.628Z,5.10
2023-04-07T23:28:42.619Z,5.00
2023-04-07T23:31:10.218Z,4.90
2023-04-07T23:33:38.185Z,4.90
2023-04-07T23:36:06.988Z,4.90
2023-04-07T23:38:36.449Z,4.90
2023-04-07T23:41:04.163Z,4.90
2023-04-07T23:43:32.614Z,4.80
2023-04-07T23:46:00.955Z,4.80
2023-04-07T23:48:28.911Z,4.80
2023-04-07T23:50:57.426Z,4.80
2023-04-07T23:53:26.121Z,4.90
2023-04-07T23:55:53.962Z,5.00
2023-04-07T23:58:21.916Z,5.00
